Time;durP1;ratioP1;P1;durP2;ratioP2;P2;SDS_P1;SDS_P2;PMS_P1;PMS_P2;Temp;Humidity;BMP_temperature;BMP_pressure;BME280_temperature;BME280_humidity;BME280_pressure;Samples;Min_cycle;Max_cycle;Signal;HPM_P1;HPM_P2
2023/02/15 00:00:22;;;;;;;90.15;49.38;;;6.10;99.90;;;;;;4652746;30;20586;-78
2023/02/15 00:02:48;;;;;;;83.65;47.05;;;6.00;99.90;;;;;;4653672;30;20932;-77
2023/02/15 00:05:14;;;;;;;84.85;46.03;;;6.00;99.90;;;;;;4651678;30;20229;-78
2023/02/15 00:07:39;;;;;;;76.80;44.85;;;6.00;99.90;;;;;;4652374;30;20233;-76
2023/02/15 00:10:06;;;;;;;86.47;47.78;;;5.90;99.90;;;;;;4640395;30;20714;-81
2023/02/15 00:12:32;;;;;;;80.70;45.70;;;5.90;99.90;;;;;;4649872;30;20272;-77
2023/02/15 00:14:58;;;;;;;82.13;45.00;;;5.80;99.90;;;;;;4652961;30;21294;-76
2023/02/15 00:17:24;;;;;;;83.03;45.75;;;5.80;99.90;;;;;;4653730;30;20205;-76
2023/02/15 00:19:49;;;;;;;79.03;45.67;;;5.70;99.90;;;;;;4629863;30;20304;-76
2023/02/15 00:22:15;;;;;;;78.15;45.20;;;5.80;99.90;;;;;;4649943;30;20679;-78
2023/02/15 00:24:41;;;;;;;75.78;44.45;;;5.70;99.90;;;;;;4648590;30;20198;-77
2023/02/15 00:27:08;;;;;;;78.63;43.83;;;5.70;99.90;;;;;;4652821;30;20527;-77
2023/02/15 00:29:34;;;;;;;72.90;43.83;;;5.70;99.90;;;;;;4652827;30;20229;-76
2023/02/15 00:32:00;;;;;;;73.68;43.20;;;5.60;99.90;;;;;;4637632;30;20244;-76
2023/02/15 00:34:27;;;;;;;70.05;43.67;;;5.60;99.90;;;;;;4638651;30;20213;-78
2023/02/15 00:36:54;;;;;;;71.22;43.22;;;5.60;99.90;;;;;;4651874;30;20324;-75
2023/02/15 00:39:20;;;;;;;74.88;41.28;;;5.60;99.90;;;;;;4639361;30;20288;-78
2023/02/15 00:41:46;;;;;;;72.78;42.03;;;5.60;99.90;;;;;;4652021;30;20236;-76
2023/02/15 00:44:13;;;;;;;72.00;41.70;;;5.50;99.90;;;;;;4627212;30;20288;-79
2023/02/15 00:46:39;;;;;;;67.97;41.20;;;5.60;99.90;;;;;;4654019;30;20252;-77
2023/02/15 00:49:09;;;;;;;69.20;40.58;;;5.50;99.90;;;;;;4652207;30;20209;-76
2023/02/15 00:51:34;;;;;;;63.00;38.60;;;5.50;99.90;;;;;;4652774;30;20242;-77
2023/02/15 00:54:00;;;;;;;64.93;39.05;;;5.40;99.90;;;;;;4629530;30;20225;-77
2023/02/15 00:56:28;;;;;;;66.10;40.15;;;5.50;99.90;;;;;;4653359;30;20714;-74
2023/02/15 00:58:54;;;;;;;61.38;37.67;;;5.50;99.90;;;;;;4625586;30;20201;-79
2023/02/15 01:01:20;;;;;;;65.55;40.25;;;5.40;99.90;;;;;;4646060;30;20690;-76
2023/02/15 01:03:46;;;;;;;61.05;37.00;;;5.40;99.90;;;;;;4651202;30;20197;-75
2023/02/15 01:06:14;;;;;;;59.65;36.28;;;5.50;99.90;;;;;;4617405;30;20201;-78
2023/02/15 01:08:42;;;;;;;61.03;37.42;;;5.40;99.90;;;;;;4634347;30;20248;-76
2023/02/15 01:11:14;;;;;;;62.22;36.63;;;5.40;99.90;;;;;;4635635;30;20233;-79
2023/02/15 01:13:41;;;;;;;61.03;36.47;;;5.40;99.90;;;;;;4633165;30;20217;-74
2023/02/15 01:16:07;;;;;;;58.47;36.15;;;5.40;99.90;;;;;;4635022;30;20213;-77
2023/02/15 01:18:34;;;;;;;59.90;37.03;;;5.30;99.90;;;;;;4640934;30;20612;-75
2023/02/15 01:21:00;;;;;;;58.97;37.20;;;5.30;99.90;;;;;;4635787;30;20225;-77
2023/02/15 01:23:26;;;;;;;59.97;36.28;;;5.30;99.90;;;;;;4637091;30;20241;-75
2023/02/15 01:25:52;;;;;;;60.78;36.55;;;5.30;99.90;;;;;;4632691;30;20326;-74
2023/02/15 01:28:17;;;;;;;63.75;36.38;;;5.30;99.90;;;;;;4636020;30;20202;-78
2023/02/15 01:30:43;;;;;;;58.60;34.80;;;5.30;99.90;;;;;;4636041;30;20317;-76
2023/02/15 01:33:17;;;;;;;58.75;34.47;;;5.20;99.90;;;;;;4635041;30;20198;-74
2023/02/15 01:35:44;;;;;;;60.72;36.30;;;5.10;99.90;;;;;;4634052;30;20205;-75
2023/02/15 01:38:10;;;;;;;57.50;34.60;;;5.10;99.90;;;;;;4631831;30;20289;-74
2023/02/15 01:40:38;;;;;;;55.85;34.40;;;5.10;99.90;;;;;;4636193;30;20426;-75
2023/02/15 01:43:11;;;;;;;58.15;34.47;;;5.10;99.90;;;;;;4634442;30;20217;-77
2023/02/15 01:45:37;;;;;;;58.58;34.30;;;5.10;99.90;;;;;;4614038;30;20206;-77
2023/02/15 01:48:12;;;;;;;56.35;33.50;;;5.10;99.90;;;;;;4638030;30;20198;-77
2023/02/15 01:50:46;;;;;;;55.63;34.33;;;5.10;99.90;;;;;;4634516;30;20693;-78
2023/02/15 01:53:30;;;;;;;54.42;32.50;;;5.00;99.90;;;;;;4626960;30;20195;-77
2023/02/15 01:56:03;;;;;;;54.55;32.45;;;5.00;99.90;;;;;;4634858;30;20237;-74
2023/02/15 01:58:29;;;;;;;56.03;32.53;;;5.00;99.90;;;;;;4634703;30;20186;-75
2023/02/15 02:00:57;;;;;;;52.35;32.03;;;4.90;99.90;;;;;;4625288;30;20288;-77
2023/02/15 02:04:09;;;;;;;50.63;32.17;;;4.90;99.90;;;;;;4623523;30;21190;-77
2023/02/15 02:06:37;;;;;;;56.20;31.30;;;4.90;99.90;;;;;;4618086;30;20576;-79
2023/02/15 02:09:06;;;;;;;53.53;32.78;;;4.90;99.90;;;;;;4639896;30;20244;-76
2023/02/15 02:11:33;;;;;;;51.78;32.17;;;4.90;99.90;;;;;;4651556;30;20229;-78
2023/02/15 02:13:58;;;;;;;52.00;31.45;;;4.80;99.90;;;;;;4650905;30;20204;-77
2023/02/15 02:16:58;;;;;;;51.05;32.05;;;4.80;99.90;;;;;;4637421;30;20192;-76
2023/02/15 02:20:21;;;;;;;54.78;30.95;;;4.80;99.90;;;;;;4646923;30;20188;-75
2023/02/15 02:23:20;;;;;;;53.80;30.98;;;4.70;99.90;;;;;;4599441;30;20869;-75
2023/02/15 02:26:24;;;;;;;53.97;32.75;;;4.60;99.90;;;;;;4643012;30;20205;-79
2023/02/15 02:29:29;;;;;;;51.15;31.17;;;4.60;99.90;;;;;;4628554;30;22315;-80
2023/02/15 02:32:46;;;;;;;64.07;36.25;;;4.60;99.90;;;;;;4588041;31;20624;-77
2023/02/15 02:35:24;;;;;;;60.83;34.95;;;4.60;99.90;;;;;;4635416;30;21278;-79
2023/02/15 02:37:54;;;;;;;64.32;35.00;;;4.60;99.90;;;;;;4651074;30;20246;-78
2023/02/15 02:40:36;;;;;;;68.05;38.28;;;4.60;99.90;;;;;;4636263;30;20214;-76
2023/02/15 02:43:29;;;;;;;58.28;35.28;;;4.60;99.90;;;;;;4651755;30;20665;-75
2023/02/15 02:46:08;;;;;;;63.95;36.58;;;4.70;99.90;;;;;;4637237;30;20552;-78
2023/02/15 02:48:34;;;;;;;55.03;34.03;;;4.70;99.90;;;;;;4650309;30;20194;-75
2023/02/15 02:51:00;;;;;;;57.10;33.47;;;4.60;99.90;;;;;;4636771;30;20217;-77
2023/02/15 02:53:29;;;;;;;54.42;32.40;;;4.60;99.90;;;;;;4637671;30;20202;-75
2023/02/15 02:56:05;;;;;;;57.17;32.85;;;4.60;99.90;;;;;;4639713;30;20206;-76
2023/02/15 02:58:41;;;;;;;51.88;31.55;;;4.50;99.90;;;;;;4638966;30;20227;-78
2023/02/15 03:01:34;;;;;;;52.65;31.83;;;4.50;99.90;;;;;;4640224;30;20200;-78
2023/02/15 03:04:06;;;;;;;59.72;35.50;;;4.40;99.90;;;;;;4652208;30;20253;-78
2023/02/15 03:06:54;;;;;;;57.13;35.03;;;4.30;99.90;;;;;;4637432;30;20193;-74
2023/02/15 03:09:34;;;;;;;55.88;32.33;;;4.20;99.90;;;;;;4651336;30;20236;-78
2023/02/15 03:12:03;;;;;;;56.70;32.92;;;4.20;99.90;;;;;;4641047;30;20196;-77
2023/02/15 03:14:30;;;;;;;59.63;34.22;;;4.10;99.90;;;;;;4630442;30;20192;-77
2023/02/15 03:16:57;;;;;;;62.80;34.15;;;4.10;99.90;;;;;;4639422;30;20899;-77
2023/02/15 03:19:27;;;;;;;60.08;37.05;;;4.10;99.90;;;;;;4638711;30;20224;-77
2023/02/15 03:22:08;;;;;;;55.72;34.33;;;4.00;99.90;;;;;;4640721;30;20221;-78
2023/02/15 03:24:46;;;;;;;59.58;33.45;;;4.00;99.90;;;;;;4639988;30;20194;-77
2023/02/15 03:27:17;;;;;;;61.10;36.60;;;3.90;99.90;;;;;;4629717;30;20747;-73
2023/02/15 03:29:48;;;;;;;56.72;34.35;;;3.80;99.90;;;;;;4628672;30;20218;-74
2023/02/15 03:32:15;;;;;;;59.03;36.28;;;3.70;99.90;;;;;;4654981;30;20276;-77
2023/02/15 03:34:41;;;;;;;55.15;34.75;;;3.70;99.90;;;;;;4653712;30;20197;-75
2023/02/15 03:37:19;;;;;;;57.20;35.88;;;3.70;99.90;;;;;;4654092;30;20220;-76
2023/02/15 03:43:00;;;;;;;64.25;36.33;;;3.70;99.90;;;;;;4630016;30;20232;-76
2023/02/15 03:45:31;;;;;;;59.72;35.45;;;3.70;99.90;;;;;;4653584;30;20194;-73
2023/02/15 03:47:59;;;;;;;52.72;32.85;;;3.70;99.90;;;;;;4656072;30;20570;-79
2023/02/15 03:53:17;;;;;;;58.08;34.83;;;3.60;99.90;;;;;;4651263;30;20235;-76
2023/02/15 03:55:47;;;;;;;55.67;32.83;;;3.60;99.90;;;;;;4654381;30;20232;-77
2023/02/15 04:04:00;;;;;;;55.53;31.38;;;3.60;99.90;;;;;;4652137;30;20208;-76
2023/02/15 04:06:26;;;;;;;55.15;32.38;;;3.60;99.90;;;;;;4653175;30;20189;-76
2023/02/15 04:11:36;;;;;;;61.03;33.60;;;3.50;99.90;;;;;;4639918;30;21232;-76
2023/02/15 04:16:02;;;;;;;60.88;34.78;;;3.50;99.90;;;;;;4636210;30;20276;-74
2023/02/15 04:16:47;;;;;;;56.53;33.70;;;3.50;99.90;;;;;;4649955;30;20202;-76
2023/02/15 04:27:26;;;;;;;58.20;32.58;;;3.60;99.90;;;;;;4652464;30;20280;-77
2023/02/15 04:29:52;;;;;;;57.20;33.22;;;3.60;99.90;;;;;;4653391;30;20484;-75
2023/02/15 04:32:18;;;;;;;59.63;34.28;;;3.50;99.90;;;;;;4654246;30;20212;-75
2023/02/15 04:34:44;;;;;;;57.22;34.17;;;3.50;99.90;;;;;;4653539;30;20452;-79
2023/02/15 04:37:10;;;;;;;61.38;34.50;;;3.50;99.90;;;;;;4652190;30;20205;-73
2023/02/15 04:39:36;;;;;;;55.00;33.53;;;3.50;99.90;;;;;;4654380;30;20205;-74
2023/02/15 04:42:01;;;;;;;56.40;33.33;;;3.50;99.90;;;;;;4653844;30;20214;-78
2023/02/15 04:44:27;;;;;;;55.08;31.95;;;3.50;99.90;;;;;;4653955;30;20209;-77
2023/02/15 04:46:53;;;;;;;52.40;30.13;;;3.50;99.90;;;;;;4654595;30;20233;-75
2023/02/15 04:49:19;;;;;;;51.15;30.88;;;3.50;99.90;;;;;;4653713;30;20675;-75
2023/02/15 04:51:44;;;;;;;47.13;29.40;;;3.50;99.90;;;;;;4652665;30;20234;-77
2023/02/15 04:54:10;;;;;;;47.97;29.65;;;3.50;99.90;;;;;;4639542;30;20205;-75
2023/02/15 04:56:37;;;;;;;53.08;29.88;;;3.40;99.90;;;;;;4653269;30;20287;-74
2023/02/15 04:59:03;;;;;;;52.42;31.42;;;3.40;99.90;;;;;;4648283;30;20201;-75
2023/02/15 05:01:29;;;;;;;48.58;29.52;;;3.40;99.90;;;;;;4625275;30;20479;-75
2023/02/15 05:03:55;;;;;;;51.75;30.02;;;3.30;99.90;;;;;;4652836;30;20284;-75
2023/02/15 05:06:20;;;;;;;49.67;30.52;;;3.30;99.90;;;;;;4652265;30;20201;-75
2023/02/15 05:08:46;;;;;;;51.55;29.08;;;3.20;99.90;;;;;;4653258;30;20619;-77
2023/02/15 05:11:12;;;;;;;47.60;29.80;;;3.20;99.90;;;;;;4651224;30;20416;-74
2023/02/15 05:13:37;;;;;;;66.78;32.97;;;3.10;99.90;;;;;;4652306;30;20468;-78
2023/02/15 05:16:03;;;;;;;53.42;32.58;;;3.10;99.90;;;;;;4649904;30;20237;-76
2023/02/15 05:18:29;;;;;;;56.85;31.92;;;3.00;99.90;;;;;;4649073;30;20221;-76
2023/02/15 05:20:55;;;;;;;56.78;32.97;;;3.10;99.90;;;;;;4652683;30;20314;-76
2023/02/15 05:23:21;;;;;;;57.80;34.55;;;3.10;99.90;;;;;;4652173;30;20213;-74
2023/02/15 05:28:37;;;;;;;55.25;33.10;;;3.00;99.90;;;;;;4648734;30;20669;-75
2023/02/15 05:31:05;;;;;;;55.40;34.35;;;2.90;99.90;;;;;;4651771;30;20885;-76
2023/02/15 05:33:31;;;;;;;63.42;36.72;;;2.90;99.90;;;;;;4650327;30;21221;-77
2023/02/15 05:35:57;;;;;;;60.47;37.10;;;2.90;99.90;;;;;;4651968;30;20213;-75
2023/02/15 05:38:23;;;;;;;67.32;37.22;;;3.00;99.90;;;;;;4649201;30;20197;-80
2023/02/15 05:40:50;;;;;;;69.93;39.00;;;3.00;99.90;;;;;;4648139;30;20217;-80
2023/02/15 05:43:16;;;;;;;67.35;37.03;;;3.00;99.90;;;;;;4650132;30;20296;-78
2023/02/15 05:45:48;;;;;;;72.68;38.28;;;2.90;99.90;;;;;;4652561;30;20201;-74
2023/02/15 05:48:14;;;;;;;70.97;40.53;;;3.00;99.90;;;;;;4639646;30;20197;-76
2023/02/15 05:50:40;;;;;;;73.90;41.55;;;3.00;99.90;;;;;;4649280;30;20748;-80
2023/02/15 05:53:06;;;;;;;73.15;39.88;;;3.00;99.90;;;;;;4648945;30;20551;-77
2023/02/15 05:55:31;;;;;;;78.57;42.95;;;3.00;99.90;;;;;;4651209;30;20192;-77
2023/02/15 05:57:57;;;;;;;75.00;40.47;;;3.00;99.90;;;;;;4652003;30;20213;-78
2023/02/15 06:00:23;;;;;;;71.05;39.08;;;3.00;99.90;;;;;;4650455;30;20296;-78
2023/02/15 06:02:49;;;;;;;80.75;39.78;;;3.00;99.90;;;;;;4649035;30;20209;-75
2023/02/15 06:05:15;;;;;;;70.82;37.28;;;3.00;99.90;;;;;;4650570;30;20209;-78
2023/02/15 06:07:44;;;;;;;69.20;38.05;;;3.00;99.90;;;;;;4651921;30;20658;-74
2023/02/15 06:10:10;;;;;;;67.50;38.80;;;3.00;99.90;;;;;;4637823;30;20247;-76
2023/02/15 06:12:36;;;;;;;83.97;42.20;;;2.90;99.90;;;;;;4651379;30;20205;-79
2023/02/15 06:15:03;;;;;;;73.10;40.17;;;3.00;99.90;;;;;;4650388;30;20273;-75
2023/02/15 06:17:28;;;;;;;77.30;39.92;;;2.90;99.90;;;;;;4651952;30;20316;-77
2023/02/15 06:19:54;;;;;;;78.38;43.97;;;2.90;99.90;;;;;;4651545;30;20205;-76
2023/02/15 06:22:20;;;;;;;92.13;48.35;;;2.90;99.90;;;;;;4648940;30;20643;-75
2023/02/15 06:24:46;;;;;;;91.38;48.75;;;3.00;99.90;;;;;;4650678;30;20235;-80
2023/02/15 06:27:13;;;;;;;91.80;50.20;;;3.00;99.90;;;;;;4652286;30;20624;-74
2023/02/15 06:29:39;;;;;;;91.97;49.53;;;3.10;99.90;;;;;;4654162;30;20749;-75
2023/02/15 06:32:05;;;;;;;100.47;53.10;;;3.10;99.90;;;;;;4652331;30;20573;-78
2023/02/15 06:34:31;;;;;;;97.38;50.95;;;3.20;99.90;;;;;;4650164;30;21259;-75
2023/02/15 06:36:57;;;;;;;94.90;53.05;;;3.20;99.90;;;;;;4637724;30;20201;-78
2023/02/15 06:39:23;;;;;;;100.88;53.60;;;3.30;99.90;;;;;;4652544;30;20208;-78
2023/02/15 06:41:49;;;;;;;100.82;52.03;;;3.40;99.90;;;;;;4649731;30;20276;-75
2023/02/15 06:44:14;;;;;;;97.95;51.60;;;3.40;99.90;;;;;;4653541;30;20234;-79
2023/02/15 06:46:40;;;;;;;97.65;48.70;;;3.40;99.90;;;;;;4654079;30;20231;-75
2023/02/15 06:49:06;;;;;;;95.88;52.17;;;3.50;99.90;;;;;;4651369;30;20197;-76
2023/02/15 06:51:33;;;;;;;90.45;50.25;;;3.50;99.90;;;;;;4650765;30;20284;-76
2023/02/15 06:53:59;;;;;;;90.75;50.33;;;3.60;99.90;;;;;;4651826;30;20205;-81
2023/02/15 06:56:25;;;;;;;95.47;48.15;;;3.60;99.90;;;;;;4655861;30;20204;-78
2023/02/15 06:58:52;;;;;;;87.93;49.30;;;3.70;99.90;;;;;;4653481;30;20671;-76
2023/02/15 07:01:18;;;;;;;84.32;46.10;;;3.70;99.90;;;;;;4632323;30;20798;-78
2023/02/15 07:03:44;;;;;;;90.82;45.88;;;3.70;99.90;;;;;;4653270;30;20227;-80
2023/02/15 07:06:11;;;;;;;84.32;44.85;;;3.80;99.90;;;;;;4651433;30;20238;-73
2023/02/15 07:08:38;;;;;;;88.03;45.50;;;3.80;99.90;;;;;;4651611;30;20245;-79
2023/02/15 07:13:49;;;;;;;84.78;45.83;;;3.90;99.90;;;;;;4648760;30;20208;-79
2023/02/15 07:16:15;;;;;;;77.53;42.95;;;3.90;99.90;;;;;;4655112;30;20201;-80
2023/02/15 07:18:41;;;;;;;72.72;42.53;;;3.90;99.90;;;;;;4654450;30;20212;-78
2023/02/15 07:21:07;;;;;;;75.82;42.83;;;4.00;99.90;;;;;;4654009;30;20201;-79
2023/02/15 07:23:38;;;;;;;70.97;40.78;;;4.00;99.90;;;;;;4650805;30;20198;-77
2023/02/15 07:26:05;;;;;;;71.20;40.22;;;4.00;99.90;;;;;;4653168;30;20197;-76
2023/02/15 07:28:32;;;;;;;71.38;40.63;;;4.10;99.90;;;;;;4653782;30;20197;-79
2023/02/15 07:30:57;;;;;;;75.15;40.67;;;4.10;99.90;;;;;;4654172;30;20241;-77
2023/02/15 07:33:23;;;;;;;72.32;39.92;;;4.10;99.90;;;;;;4649547;30;20632;-76
2023/02/15 07:35:51;;;;;;;72.00;40.20;;;4.20;99.90;;;;;;4652853;30;20236;-79
2023/02/15 07:38:18;;;;;;;69.80;40.28;;;4.20;99.90;;;;;;4649145;30;20199;-78
2023/02/15 07:40:44;;;;;;;68.80;38.58;;;4.30;99.90;;;;;;4653677;30;20404;-80
2023/02/15 07:43:11;;;;;;;72.95;39.08;;;4.30;99.90;;;;;;4653394;30;20209;-77
2023/02/15 07:45:37;;;;;;;67.13;38.88;;;4.40;99.90;;;;;;4654061;30;20202;-81
2023/02/15 07:48:04;;;;;;;65.78;38.55;;;4.50;99.90;;;;;;4655951;30;20256;-75
2023/02/15 07:50:30;;;;;;;66.45;38.25;;;4.60;99.90;;;;;;4654439;30;20244;-79
2023/02/15 07:52:56;;;;;;;63.70;37.15;;;4.70;99.90;;;;;;4654947;30;20201;-80
2023/02/15 07:55:22;;;;;;;62.20;38.30;;;4.80;99.90;;;;;;4653630;30;20223;-74
2023/02/15 07:57:49;;;;;;;61.47;36.92;;;5.00;99.90;;;;;;4651953;30;20197;-75
2023/02/15 08:00:21;;;;;;;60.40;36.72;;;5.10;99.90;;;;;;4654197;30;20200;-74
2023/02/15 08:03:12;;;;;;;65.45;36.70;;;5.30;99.90;;;;;;4654186;30;20260;-82
2023/02/15 08:05:37;;;;;;;58.67;35.83;;;5.50;99.90;;;;;;4636775;30;20213;-80
2023/02/15 08:08:03;;;;;;;55.65;35.33;;;5.80;99.90;;;;;;4653089;30;20567;-82
2023/02/15 08:13:14;;;;;;;60.88;40.85;;;6.00;99.90;;;;;;4652372;30;20533;-75
2023/02/15 08:15:48;;;;;;;59.08;36.88;;;6.30;99.90;;;;;;4639019;30;20754;-74
2023/02/15 08:18:14;;;;;;;52.28;33.22;;;6.30;99.90;;;;;;4651041;30;20190;-79
2023/02/15 08:20:40;;;;;;;62.60;34.83;;;6.40;99.90;;;;;;4633071;30;20209;-80
2023/02/15 08:23:05;;;;;;;53.45;33.47;;;6.50;99.90;;;;;;4648834;30;20283;-80
2023/02/15 08:25:31;;;;;;;59.03;33.92;;;6.60;99.90;;;;;;4632275;30;20702;-80
2023/02/15 08:27:57;;;;;;;55.53;33.70;;;6.80;99.90;;;;;;4631069;30;20209;-78
2023/02/15 08:30:23;;;;;;;53.25;33.42;;;7.00;99.90;;;;;;4654817;30;20688;-76
2023/02/15 08:32:48;;;;;;;52.75;32.78;;;7.20;99.90;;;;;;4655732;30;20264;-81
2023/02/15 08:35:14;;;;;;;53.30;31.95;;;7.40;99.90;;;;;;4652600;30;20193;-76
2023/02/15 08:37:40;;;;;;;50.58;32.83;;;7.70;99.90;;;;;;4654577;30;20203;-78
2023/02/15 08:40:06;;;;;;;50.95;30.60;;;7.80;99.90;;;;;;4643133;30;20220;-76
2023/02/15 08:42:35;;;;;;;51.72;30.30;;;7.90;99.90;;;;;;4655444;30;20197;-76
2023/02/15 08:45:01;;;;;;;52.00;30.92;;;8.00;99.90;;;;;;4653089;30;20189;-80
2023/02/15 08:47:27;;;;;;;45.75;30.27;;;8.20;99.90;;;;;;4656596;30;20687;-75
2023/02/15 08:49:53;;;;;;;45.28;30.52;;;8.40;99.90;;;;;;4655063;30;20229;-78
2023/02/15 08:52:18;;;;;;;51.10;30.70;;;8.40;99.90;;;;;;4653217;30;20200;-76
2023/02/15 08:54:44;;;;;;;47.97;30.05;;;8.50;99.90;;;;;;4638353;30;20212;-80
2023/02/15 08:57:10;;;;;;;47.47;30.83;;;8.50;99.90;;;;;;4650857;30;20202;-77
2023/02/15 08:59:36;;;;;;;50.25;30.65;;;8.50;99.90;;;;;;4655479;30;21489;-78
2023/02/15 09:02:02;;;;;;;48.45;29.88;;;8.50;99.90;;;;;;4654763;30;20438;-77
2023/02/15 09:04:28;;;;;;;48.83;30.55;;;8.50;99.90;;;;;;4631414;30;20205;-81
2023/02/15 09:06:54;;;;;;;48.88;30.90;;;8.50;99.90;;;;;;4651250;30;20212;-78
2023/02/15 09:09:21;;;;;;;48.33;30.02;;;8.60;99.90;;;;;;4635701;30;20467;-80
2023/02/15 09:11:49;;;;;;;46.13;29.88;;;8.60;99.90;;;;;;4648790;30;20240;-76
2023/02/15 09:14:20;;;;;;;43.53;29.20;;;8.60;99.90;;;;;;4649075;30;20215;-77
2023/02/15 09:16:48;;;;;;;44.47;30.02;;;8.70;99.90;;;;;;4653269;30;20199;-79
2023/02/15 09:19:15;;;;;;;49.78;28.55;;;8.70;99.90;;;;;;4651404;30;20230;-80
2023/02/15 09:21:41;;;;;;;46.40;30.05;;;8.70;99.90;;;;;;4641898;30;20224;-77
2023/02/15 09:24:13;;;;;;;48.05;29.75;;;8.80;99.90;;;;;;4651575;30;20371;-77
2023/02/15 09:26:42;;;;;;;51.60;29.65;;;8.80;99.90;;;;;;4642598;30;20189;-77
2023/02/15 09:29:09;;;;;;;48.58;29.73;;;8.90;99.90;;;;;;4652711;30;20208;-75
2023/02/15 09:31:44;;;;;;;45.53;28.13;;;9.10;99.90;;;;;;4648380;30;20229;-76
2023/02/15 09:34:11;;;;;;;43.50;28.27;;;9.20;99.90;;;;;;4652008;30;20191;-76
2023/02/15 09:36:39;;;;;;;44.90;29.27;;;9.20;99.90;;;;;;4654685;30;20197;-80
2023/02/15 09:39:12;;;;;;;46.05;29.60;;;9.40;99.90;;;;;;4652846;30;20193;-82
2023/02/15 09:41:56;;;;;;;50.20;30.10;;;9.50;99.90;;;;;;4652174;30;20201;-77
2023/02/15 09:44:34;;;;;;;47.50;29.50;;;9.70;99.90;;;;;;4630174;30;20201;-78
2023/02/15 09:47:27;;;;;;;50.17;29.70;;;9.90;99.90;;;;;;4654576;30;20948;-76
2023/02/15 09:50:24;;;;;;;49.33;27.98;;;10.10;99.90;;;;;;4653889;30;20207;-76
2023/02/15 09:53:28;;;;;;;49.38;30.10;;;10.40;99.90;;;;;;4618979;30;20186;-79
2023/02/15 09:56:16;;;;;;;47.30;28.35;;;10.60;99.90;;;;;;4652377;30;20193;-76
2023/02/15 09:59:13;;;;;;;46.10;29.35;;;10.80;99.90;;;;;;4637248;30;20192;-77
2023/02/15 10:02:01;;;;;;;48.05;29.45;;;11.00;99.90;;;;;;4647930;30;20215;-83
2023/02/15 10:04:36;;;;;;;47.15;28.80;;;11.10;99.90;;;;;;4637100;30;20639;-76
2023/02/15 10:07:18;;;;;;;43.55;27.92;;;11.30;99.90;;;;;;4651743;30;20194;-78
2023/02/15 10:09:46;;;;;;;45.33;28.98;;;11.40;99.90;;;;;;4629976;30;20292;-78
2023/02/15 10:12:15;;;;;;;46.92;29.35;;;11.60;99.90;;;;;;4624833;30;20215;-75
2023/02/15 10:14:50;;;;;;;45.80;28.52;;;11.70;99.90;;;;;;4646676;30;20204;-81
2023/02/15 10:17:45;;;;;;;48.22;29.17;;;11.90;99.90;;;;;;4649713;30;20194;-81
2023/02/15 10:20:23;;;;;;;44.60;28.52;;;11.90;99.90;;;;;;4652611;30;20559;-75
2023/02/15 10:23:17;;;;;;;50.67;29.95;;;11.90;99.90;;;;;;4645859;30;20198;-80
2023/02/15 10:26:07;;;;;;;53.28;28.88;;;11.90;99.90;;;;;;4648526;30;20651;-77
2023/02/15 10:29:02;;;;;;;44.35;29.20;;;11.80;99.90;;;;;;4649969;30;20186;-77
2023/02/15 10:31:40;;;;;;;44.42;28.90;;;11.90;99.90;;;;;;4651334;30;20218;-78
2023/02/15 10:34:11;;;;;;;40.90;26.95;;;12.10;99.90;;;;;;4628081;30;20652;-86
2023/02/15 10:36:40;;;;;;;45.65;28.42;;;12.30;99.90;;;;;;4645942;30;20198;-77
2023/02/15 10:39:34;;;;;;;49.65;28.73;;;12.50;99.90;;;;;;4652582;30;20320;-82
2023/02/15 10:42:15;;;;;;;46.80;29.42;;;12.60;99.90;;;;;;4650415;30;20204;-81
2023/02/15 10:44:52;;;;;;;46.33;28.92;;;12.70;99.90;;;;;;4647122;30;20221;-80
2023/02/15 10:47:32;;;;;;;46.92;28.13;;;12.70;99.90;;;;;;4655035;30;20205;-78
2023/02/15 10:50:15;;;;;;;45.80;28.73;;;12.80;99.90;;;;;;4648369;30;20197;-79
2023/02/15 10:52:54;;;;;;;46.63;28.95;;;13.00;99.90;;;;;;4630116;30;20196;-77
2023/02/15 10:55:57;;;;;;;50.38;28.55;;;13.10;99.90;;;;;;4654538;30;21000;-79
2023/02/15 10:58:36;;;;;;;40.58;28.00;;;13.20;99.90;;;;;;4652482;30;20198;-77
2023/02/15 11:01:07;;;;;;;44.85;29.13;;;13.30;99.90;;;;;;4648953;30;20292;-81
2023/02/15 11:04:11;;;;;;;45.95;28.70;;;13.50;99.90;;;;;;4626443;30;20619;-80
2023/02/15 11:06:42;;;;;;;51.88;29.05;;;13.70;99.90;;;;;;4648628;30;20283;-80
2023/02/15 11:09:15;;;;;;;49.00;29.17;;;13.60;99.90;;;;;;4651376;30;20296;-78
2023/02/15 11:11:44;;;;;;;46.10;30.08;;;13.70;99.90;;;;;;4652763;30;20651;-77
2023/02/15 11:14:37;;;;;;;48.85;29.50;;;13.80;99.90;;;;;;4655367;30;20218;-77
2023/02/15 11:17:09;;;;;;;49.30;29.08;;;13.70;99.90;;;;;;4653900;30;20544;-81
2023/02/15 11:19:51;;;;;;;51.53;30.92;;;13.80;99.90;;;;;;4652348;30;20268;-81
2023/02/15 11:22:18;;;;;;;46.90;29.15;;;13.80;99.90;;;;;;4656191;30;20193;-80
2023/02/15 11:24:46;;;;;;;49.33;30.13;;;13.90;99.90;;;;;;4654888;30;20201;-79
2023/02/15 11:27:25;;;;;;;49.90;30.70;;;14.00;99.90;;;;;;4655714;30;20236;-75
2023/02/15 11:30:09;;;;;;;50.47;30.98;;;14.10;99.90;;;;;;4637077;30;20200;-76
2023/02/15 11:32:40;;;;;;;49.45;30.40;;;14.20;99.90;;;;;;4650730;30;20213;-78
2023/02/15 11:35:12;;;;;;;50.10;29.80;;;14.30;99.90;;;;;;4633293;30;20193;-83
2023/02/15 11:37:50;;;;;;;49.83;29.95;;;14.40;99.90;;;;;;4655092;30;20200;-78
2023/02/15 11:40:42;;;;;;;52.45;30.30;;;14.40;99.90;;;;;;4652011;30;20237;-76
2023/02/15 11:43:23;;;;;;;51.17;30.65;;;14.50;99.90;;;;;;4640823;30;20209;-76
2023/02/15 11:45:49;;;;;;;52.05;30.40;;;14.70;99.90;;;;;;4635073;30;20197;-77
2023/02/15 11:48:15;;;;;;;48.85;30.65;;;14.70;99.90;;;;;;4641565;30;20549;-78
2023/02/15 11:50:42;;;;;;;50.10;29.58;;;14.80;99.70;;;;;;4650536;30;20497;-79
2023/02/15 11:53:13;;;;;;;46.42;29.05;;;14.80;99.30;;;;;;4645653;30;20197;-78
2023/02/15 11:55:39;;;;;;;51.83;29.98;;;14.80;99.20;;;;;;4654775;30;20224;-77
2023/02/15 11:58:20;;;;;;;49.22;30.20;;;14.90;99.20;;;;;;4656497;30;20197;-80
2023/02/15 12:00:49;;;;;;;50.10;29.45;;;15.00;98.80;;;;;;4655685;30;20220;-77
2023/02/15 12:03:49;;;;;;;48.90;29.88;;;15.00;98.50;;;;;;4633517;30;20255;-78
2023/02/15 12:06:44;;;;;;;50.17;29.27;;;15.10;98.50;;;;;;4656394;30;20202;-76
2023/02/15 12:09:19;;;;;;;47.90;29.77;;;15.40;98.30;;;;;;4643077;30;20237;-78
2023/02/15 12:11:44;;;;;;;45.15;28.02;;;15.50;98.10;;;;;;4654462;30;20236;-77
2023/02/15 12:14:15;;;;;;;48.58;28.52;;;15.80;97.80;;;;;;4654454;30;20213;-76
2023/02/15 12:16:48;;;;;;;49.30;28.92;;;16.00;97.10;;;;;;4650059;30;20198;-75
2023/02/15 12:19:40;;;;;;;52.00;29.10;;;16.20;96.10;;;;;;4654621;30;20200;-76
2023/02/15 12:22:18;;;;;;;51.25;28.73;;;16.20;95.90;;;;;;4654343;30;20285;-78
2023/02/15 12:24:48;;;;;;;53.33;28.75;;;16.20;95.60;;;;;;4651517;30;20204;-78
2023/02/15 12:27:30;;;;;;;52.38;27.80;;;16.20;95.70;;;;;;4654338;30;20209;-76
2023/02/15 12:29:58;;;;;;;49.28;27.13;;;16.30;95.60;;;;;;4649581;30;20205;-81
2023/02/15 12:32:53;;;;;;;48.88;26.63;;;16.50;95.10;;;;;;4657417;30;20573;-79
2023/02/15 12:35:31;;;;;;;47.28;28.38;;;16.60;94.40;;;;;;4655659;30;20747;-80
2023/02/15 12:38:10;;;;;;;47.72;27.63;;;16.60;94.00;;;;;;4658329;30;20238;-82
2023/02/15 12:40:37;;;;;;;47.90;28.70;;;16.50;93.60;;;;;;4651993;30;20203;-80
2023/02/15 12:43:08;;;;;;;44.30;28.85;;;16.40;93.60;;;;;;4656585;30;20488;-80
2023/02/15 12:45:36;;;;;;;55.10;31.80;;;16.30;93.60;;;;;;4656493;30;20205;-78
2023/02/15 12:48:19;;;;;;;50.95;30.05;;;16.30;93.70;;;;;;4660394;30;20217;-80
2023/02/15 12:50:49;;;;;;;51.17;29.67;;;16.50;93.70;;;;;;4653616;30;20221;-78
2023/02/15 12:53:23;;;;;;;53.97;30.83;;;16.50;93.40;;;;;;4654900;30;20297;-79
2023/02/15 12:55:56;;;;;;;48.75;29.88;;;16.50;93.50;;;;;;4654916;30;20193;-79
2023/02/15 12:58:27;;;;;;;53.65;31.98;;;16.40;93.70;;;;;;4655572;30;20212;-77
2023/02/15 13:01:08;;;;;;;55.90;31.25;;;16.40;93.90;;;;;;4651132;30;20216;-78
2023/02/15 13:03:35;;;;;;;54.13;32.45;;;16.40;94.10;;;;;;4649879;30;20198;-78
2023/02/15 13:06:07;;;;;;;56.42;34.05;;;16.30;94.20;;;;;;4652806;30;20316;-78
2023/02/15 13:08:47;;;;;;;55.78;34.35;;;16.40;94.10;;;;;;4654436;30;20273;-81
2023/02/15 13:11:22;;;;;;;52.45;32.90;;;16.30;94.00;;;;;;4652566;30;20229;-79
2023/02/15 13:13:51;;;;;;;57.97;33.80;;;16.30;93.50;;;;;;4654610;30;20193;-79
2023/02/15 13:16:28;;;;;;;60.75;33.97;;;16.10;93.60;;;;;;4654348;30;20201;-77
2023/02/15 13:18:54;;;;;;;55.17;33.63;;;16.10;93.60;;;;;;4653353;30;20950;-77
2023/02/15 13:21:32;;;;;;;57.47;33.78;;;16.00;93.50;;;;;;4650866;30;20204;-80
2023/02/15 13:24:05;;;;;;;57.72;33.35;;;15.70;93.30;;;;;;4649949;30;20341;-81
2023/02/15 13:26:34;;;;;;;60.08;34.20;;;15.60;93.60;;;;;;4655206;30;20535;-78